Time;durP1;ratioP1;P1;durP2;ratioP2;P2;SDS_P1;SDS_P2;PMS_P1;PMS_P2;Temp;Humidity;BMP_temperature;BMP_pressure;BME280_temperature;BME280_humidity;BME280_pressure;Samples;Min_cycle;Max_cycle;Signal;HPM_P1;HPM_P2
2023/05/10 00:01:02;;;;;;;7.57;1.27;;;;;;;;;;5053088;28;20047;-72
2023/05/10 00:03:28;;;;;;;5.55;1.30;;;;;;;;;;5053111;28;20024;-72
2023/05/10 00:05:55;;;;;;;13.80;1.42;;;;;;;;;;5052466;28;20047;-73
2023/05/10 00:08:21;;;;;;;7.00;1.50;;;;;;;;;;5052859;28;20048;-73
2023/05/10 00:10:47;;;;;;;7.43;1.08;;;;;;;;;;5052982;28;20020;-73
2023/05/10 00:13:14;;;;;;;6.43;1.40;;;;;;;;;;5052639;28;20032;-72
2023/05/10 00:15:40;;;;;;;11.73;1.40;;;;;;;;;;5051657;28;20549;-73
2023/05/10 00:18:06;;;;;;;7.55;1.70;;;;;;;;;;5052739;28;20021;-73
2023/05/10 00:20:33;;;;;;;10.02;1.63;;;;;;;;;;5052913;28;20025;-72
2023/05/10 00:22:59;;;;;;;7.35;1.30;;;;;;;;;;5052950;28;20043;-73
2023/05/10 00:25:25;;;;;;;12.73;1.55;;;;;;;;;;5052495;28;20087;-73
2023/05/10 00:27:51;;;;;;;7.25;1.30;;;;;;;;;;5052592;28;20055;-73
2023/05/10 00:30:18;;;;;;;8.27;1.90;;;;;;;;;;5052311;28;20052;-73
2023/05/10 00:32:45;;;;;;;10.90;1.67;;;;;;;;;;5052094;28;20027;-73
2023/05/10 00:35:11;;;;;;;5.25;1.10;;;;;;;;;;5052025;28;20025;-72
2023/05/10 00:37:37;;;;;;;6.65;1.40;;;;;;;;;;5051983;28;20020;-73
2023/05/10 00:40:04;;;;;;;7.30;1.23;;;;;;;;;;5051622;28;20482;-73
2023/05/10 00:42:31;;;;;;;7.70;1.25;;;;;;;;;;5051581;28;20017;-73
2023/05/10 00:44:57;;;;;;;7.22;1.35;;;;;;;;;;5051575;28;20041;-73
2023/05/10 00:47:24;;;;;;;8.57;1.45;;;;;;;;;;5052048;28;20027;-73
2023/05/10 00:49:50;;;;;;;5.60;1.40;;;;;;;;;;5051653;28;20028;-73
2023/05/10 00:52:16;;;;;;;12.32;1.77;;;;;;;;;;5051915;28;20057;-73
2023/05/10 00:54:43;;;;;;;8.68;1.48;;;;;;;;;;5051539;28;20070;-73
2023/05/10 00:57:09;;;;;;;6.47;1.60;;;;;;;;;;5051604;28;20037;-73
2023/05/10 00:59:36;;;;;;;8.35;2.00;;;;;;;;;;5051585;28;20013;-72
2023/05/10 01:02:02;;;;;;;10.45;1.83;;;;;;;;;;5050051;28;20551;-72
2023/05/10 01:04:28;;;;;;;11.10;2.13;;;;;;;;;;5051303;28;20043;-73
2023/05/10 01:06:55;;;;;;;6.32;1.48;;;;;;;;;;5051479;28;20032;-73
2023/05/10 01:09:21;;;;;;;6.45;1.77;;;;;;;;;;5051381;28;20362;-73
2023/05/10 01:11:49;;;;;;;6.53;1.92;;;;;;;;;;5051297;28;20025;-73
2023/05/10 01:14:15;;;;;;;12.00;1.75;;;;;;;;;;5051495;28;20037;-73
2023/05/10 01:16:42;;;;;;;10.15;1.75;;;;;;;;;;5051323;28;20027;-73
2023/05/10 01:19:17;;;;;;;8.80;2.13;;;;;;;;;;5050111;28;20025;-73
2023/05/10 01:22:07;;;;;;;11.93;1.60;;;;;;;;;;5051357;28;20029;-73
2023/05/10 01:24:45;;;;;;;8.80;1.92;;;;;;;;;;5028962;28;20098;-73
2023/05/10 01:27:17;;;;;;;14.48;2.08;;;;;;;;;;5029019;28;20042;-72
2023/05/10 01:30:09;;;;;;;10.27;2.10;;;;;;;;;;4987282;28;1203715;-73
2023/05/10 01:32:36;;;;;;;11.98;2.22;;;;;;;;;;5029802;28;20029;-73
2023/05/10 01:35:25;;;;;;;11.52;2.45;;;;;;;;;;5029751;28;20040;-72
2023/05/10 01:37:57;;;;;;;13.13;2.70;;;;;;;;;;5022173;28;20545;-72
2023/05/10 01:40:27;;;;;;;18.05;2.05;;;;;;;;;;5029440;28;20517;-73
2023/05/10 01:42:58;;;;;;;9.73;1.80;;;;;;;;;;5029529;28;20040;-72
2023/05/10 01:45:44;;;;;;;19.58;2.20;;;;;;;;;;5029579;28;20051;-72
2023/05/10 01:48:12;;;;;;;7.53;1.80;;;;;;;;;;5013145;28;20038;-73
2023/05/10 01:50:40;;;;;;;9.20;1.70;;;;;;;;;;5029806;28;20044;-73
2023/05/10 01:53:08;;;;;;;8.93;1.95;;;;;;;;;;5029590;28;20024;-73
2023/05/10 01:55:46;;;;;;;11.07;1.92;;;;;;;;;;5029255;28;20041;-72
2023/05/10 01:58:14;;;;;;;9.23;1.90;;;;;;;;;;5029493;28;20027;-73
2023/05/10 02:00:43;;;;;;;13.60;2.33;;;;;;;;;;5029647;28;20390;-72
2023/05/10 02:03:11;;;;;;;10.90;2.13;;;;;;;;;;5031879;28;20049;-73
2023/05/10 02:05:38;;;;;;;11.77;2.30;;;;;;;;;;5031536;28;20037;-73
2023/05/10 02:08:06;;;;;;;9.95;2.25;;;;;;;;;;5031462;28;20036;-72
2023/05/10 02:10:36;;;;;;;13.65;2.40;;;;;;;;;;5031531;28;20030;-72
2023/05/10 02:13:03;;;;;;;11.73;2.20;;;;;;;;;;5031400;28;20043;-72
2023/05/10 02:15:30;;;;;;;14.40;2.75;;;;;;;;;;5031408;28;20029;-72
2023/05/10 02:17:57;;;;;;;11.18;2.20;;;;;;;;;;5031816;28;20356;-72
2023/05/10 02:20:25;;;;;;;11.48;2.58;;;;;;;;;;5031997;28;20018;-72
2023/05/10 02:22:52;;;;;;;9.00;1.95;;;;;;;;;;5031512;28;20021;-74
2023/05/10 02:25:20;;;;;;;10.35;2.28;;;;;;;;;;5031177;28;20414;-73
2023/05/10 02:27:48;;;;;;;9.25;2.03;;;;;;;;;;5030071;28;20033;-73
2023/05/10 02:30:15;;;;;;;10.38;2.17;;;;;;;;;;5033170;28;20503;-73
2023/05/10 02:32:42;;;;;;;10.73;2.08;;;;;;;;;;5033830;28;20026;-72
2023/05/10 02:35:09;;;;;;;8.05;1.25;;;;;;;;;;5034974;28;20025;-72
2023/05/10 02:37:36;;;;;;;11.63;2.05;;;;;;;;;;5034573;28;20513;-73
2023/05/10 02:40:03;;;;;;;11.25;2.05;;;;;;;;;;5035026;28;20036;-73
2023/05/10 02:42:31;;;;;;;15.02;2.28;;;;;;;;;;5034775;28;20021;-72
2023/05/10 02:45:00;;;;;;;10.82;1.73;;;;;;;;;;5034700;28;20040;-72
2023/05/10 02:47:27;;;;;;;11.07;1.92;;;;;;;;;;5034561;28;20036;-73
2023/05/10 02:49:53;;;;;;;12.02;1.92;;;;;;;;;;5034711;28;20486;-73
2023/05/10 02:52:22;;;;;;;11.05;2.50;;;;;;;;;;5034286;28;20022;-73
2023/05/10 02:54:50;;;;;;;13.50;2.20;;;;;;;;;;5034618;28;20029;-72
2023/05/10 02:57:19;;;;;;;16.20;2.40;;;;;;;;;;5034641;28;20035;-73
2023/05/10 02:59:45;;;;;;;13.13;2.13;;;;;;;;;;5034573;28;20025;-72
2023/05/10 03:02:13;;;;;;;9.68;1.98;;;;;;;;;;5051198;28;20024;-73
2023/05/10 03:04:39;;;;;;;10.25;2.30;;;;;;;;;;5054480;28;20037;-72
2023/05/10 03:07:06;;;;;;;10.75;1.75;;;;;;;;;;5054311;28;20021;-73
2023/05/10 03:09:33;;;;;;;13.20;2.30;;;;;;;;;;5054151;28;20436;-73
2023/05/10 03:12:17;;;;;;;8.40;1.65;;;;;;;;;;5054138;28;20021;-73
2023/05/10 03:14:43;;;;;;;12.77;2.10;;;;;;;;;;5053881;28;20041;-73
2023/05/10 03:17:21;;;;;;;7.70;1.83;;;;;;;;;;5054401;28;20023;-73
2023/05/10 03:19:51;;;;;;;10.90;2.15;;;;;;;;;;5054071;28;20029;-72
2023/05/10 03:22:22;;;;;;;12.23;2.20;;;;;;;;;;5053689;28;20398;-73
2023/05/10 03:24:48;;;;;;;;;;;;;;;;;;5054297;28;20040;-72
2023/05/10 03:27:15;;;;;;;9.15;2.45;;;;;;;;;;5053949;28;19905;-73
2023/05/10 03:29:42;;;;;;;10.85;1.67;;;;;;;;;;5053850;28;20024;-73
2023/05/10 03:32:08;;;;;;;8.70;1.95;;;;;;;;;;5052831;28;20102;-73
2023/05/10 03:34:36;;;;;;;13.55;2.88;;;;;;;;;;5053788;28;20025;-72
2023/05/10 03:37:02;;;;;;;14.77;2.28;;;;;;;;;;5053519;28;20040;-72
2023/05/10 03:39:28;;;;;;;9.20;1.65;;;;;;;;;;5053782;28;20024;-73
2023/05/10 03:41:55;;;;;;;12.80;2.45;;;;;;;;;;5053104;28;20032;-72
2023/05/10 03:44:21;;;;;;;13.23;2.30;;;;;;;;;;5053456;28;20036;-73
2023/05/10 03:46:47;;;;;;;8.23;1.55;;;;;;;;;;5053801;28;20024;-73
2023/05/10 03:49:13;;;;;;;9.18;1.80;;;;;;;;;;5053365;28;20025;-73
2023/05/10 03:51:40;;;;;;;13.57;1.80;;;;;;;;;;5053249;28;20025;-73
2023/05/10 03:54:06;;;;;;;10.15;2.10;;;;;;;;;;5053349;28;20033;-72
2023/05/10 03:56:32;;;;;;;5.82;1.90;;;;;;;;;;5053515;28;20092;-72
2023/05/10 03:58:59;;;;;;;7.45;1.77;;;;;;;;;;5053472;28;20078;-73
2023/05/10 04:01:25;;;;;;;9.95;1.88;;;;;;;;;;5053236;28;20024;-73
2023/05/10 04:03:51;;;;;;;8.38;1.83;;;;;;;;;;5053474;28;20028;-73
2023/05/10 04:06:18;;;;;;;6.75;1.63;;;;;;;;;;5052911;28;20036;-72
2023/05/10 04:08:44;;;;;;;8.57;1.98;;;;;;;;;;5085323;28;20029;-72
2023/05/10 04:11:12;;;;;;;6.35;1.30;;;;;;;;;;5053031;28;20017;-72
2023/05/10 04:13:38;;;;;;;10.20;1.83;;;;;;;;;;5052805;28;20028;-73
2023/05/10 04:16:05;;;;;;;7.15;1.67;;;;;;;;;;5052855;28;20024;-72
2023/05/10 04:18:31;;;;;;;5.82;1.17;;;;;;;;;;5053226;28;20027;-73
2023/05/10 04:20:58;;;;;;;3.92;1.50;;;;;;;;;;5052730;28;20027;-73
2023/05/10 04:23:24;;;;;;;5.18;0.82;;;;;;;;;;5052931;28;20028;-73
2023/05/10 04:25:50;;;;;;;6.72;0.90;;;;;;;;;;5052677;28;20035;-73
2023/05/10 04:28:17;;;;;;;6.55;1.33;;;;;;;;;;5052763;28;20023;-73
2023/05/10 04:30:43;;;;;;;6.55;1.00;;;;;;;;;;5052474;28;20059;-73
2023/05/10 04:33:09;;;;;;;4.25;1.20;;;;;;;;;;5052661;28;20025;-73
2023/05/10 04:35:36;;;;;;;7.72;1.35;;;;;;;;;;5051150;28;20025;-73
2023/05/10 04:38:02;;;;;;;5.60;1.10;;;;;;;;;;5051186;28;20449;-73
2023/05/10 04:40:28;;;;;;;5.88;1.25;;;;;;;;;;5052704;28;20025;-73
2023/05/10 04:42:55;;;;;;;5.38;1.13;;;;;;;;;;5052737;28;20017;-73
2023/05/10 04:45:22;;;;;;;6.43;1.40;;;;;;;;;;5052417;28;20127;-73
2023/05/10 04:47:48;;;;;;;6.53;1.48;;;;;;;;;;5052564;28;20067;-73
2023/05/10 04:50:15;;;;;;;9.43;1.85;;;;;;;;;;5052331;28;20037;-73
2023/05/10 04:52:41;;;;;;;9.57;1.67;;;;;;;;;;5050982;28;20031;-73
2023/05/10 04:55:09;;;;;;;7.55;1.52;;;;;;;;;;5052519;28;20027;-73
2023/05/10 04:57:35;;;;;;;11.57;1.40;;;;;;;;;;5052396;28;20047;-73
2023/05/10 05:00:02;;;;;;;6.78;1.50;;;;;;;;;;5052470;28;20028;-73
2023/05/10 05:02:28;;;;;;;8.95;1.60;;;;;;;;;;5051936;28;20026;-73
2023/05/10 05:04:57;;;;;;;7.05;1.58;;;;;;;;;;5052080;28;20459;-72
2023/05/10 05:07:23;;;;;;;10.88;1.50;;;;;;;;;;5051973;28;20021;-73
2023/05/10 05:09:50;;;;;;;4.32;1.52;;;;;;;;;;5052217;28;20035;-72
2023/05/10 05:12:16;;;;;;;9.55;1.35;;;;;;;;;;5051946;28;20025;-73
2023/05/10 05:14:43;;;;;;;8.02;1.55;;;;;;;;;;5050724;28;20028;-72
2023/05/10 05:17:09;;;;;;;9.02;1.75;;;;;;;;;;5052025;28;20021;-73
2023/05/10 05:19:35;;;;;;;6.65;1.52;;;;;;;;;;5051883;28;20021;-72
2023/05/10 05:22:02;;;;;;;9.55;1.50;;;;;;;;;;5052184;28;20027;-74
2023/05/10 05:24:28;;;;;;;10.75;2.00;;;;;;;;;;5051889;28;20059;-73
2023/05/10 05:26:54;;;;;;;8.98;1.60;;;;;;;;;;5051989;28;20025;-74
2023/05/10 05:29:21;;;;;;;8.27;1.70;;;;;;;;;;5052045;28;20025;-74
2023/05/10 05:31:47;;;;;;;9.10;1.70;;;;;;;;;;5050306;28;20067;-75
2023/05/10 05:34:13;;;;;;;8.80;1.38;;;;;;;;;;5052176;28;20044;-74
2023/05/10 05:36:40;;;;;;;8.60;1.45;;;;;;;;;;5051848;28;20393;-73
2023/05/10 05:39:06;;;;;;;7.25;1.60;;;;;;;;;;5051980;28;20036;-74
2023/05/10 05:41:32;;;;;;;7.15;1.45;;;;;;;;;;5051725;28;20029;-74
2023/05/10 05:43:58;;;;;;;7.35;1.77;;;;;;;;;;5052015;28;20033;-74
2023/05/10 05:46:25;;;;;;;6.65;1.50;;;;;;;;;;5083997;28;20025;-74
2023/05/10 05:48:51;;;;;;;7.07;1.50;;;;;;;;;;5051636;28;20424;-74
2023/05/10 05:51:17;;;;;;;6.03;1.38;;;;;;;;;;5052011;28;20024;-73
2023/05/10 05:53:44;;;;;;;6.10;1.58;;;;;;;;;;5051829;28;20039;-74
2023/05/10 05:56:10;;;;;;;6.25;1.33;;;;;;;;;;5051851;28;20021;-74
2023/05/10 05:58:36;;;;;;;8.32;1.42;;;;;;;;;;5050383;28;20428;-74
2023/05/10 06:01:03;;;;;;;9.35;1.63;;;;;;;;;;5046974;28;20017;-74
2023/05/10 06:03:29;;;;;;;9.55;2.03;;;;;;;;;;5050796;28;20025;-74
2023/05/10 06:05:55;;;;;;;9.93;1.50;;;;;;;;;;5054409;28;20041;-74
2023/05/10 06:08:22;;;;;;;7.47;1.65;;;;;;;;;;5054981;28;20025;-73
2023/05/10 06:10:48;;;;;;;6.15;1.67;;;;;;;;;;5055351;28;20028;-74
2023/05/10 06:13:15;;;;;;;5.50;1.40;;;;;;;;;;5054976;28;20508;-74
2023/05/10 06:15:41;;;;;;;6.55;1.58;;;;;;;;;;5053828;28;20021;-74
2023/05/10 06:18:07;;;;;;;8.88;1.33;;;;;;;;;;5055131;28;20025;-73
2023/05/10 06:20:34;;;;;;;10.77;1.90;;;;;;;;;;5054970;28;20027;-74
2023/05/10 06:23:00;;;;;;;7.78;1.70;;;;;;;;;;5054781;28;20024;-74
2023/05/10 06:25:27;;;;;;;6.82;1.98;;;;;;;;;;5054302;28;20025;-74
2023/05/10 06:27:57;;;;;;;12.88;1.70;;;;;;;;;;5054919;28;20021;-73
2023/05/10 06:30:27;;;;;;;6.75;1.48;;;;;;;;;;5054350;28;20037;-73
2023/05/10 06:32:53;;;;;;;6.13;1.55;;;;;;;;;;5054118;28;20025;-74
2023/05/10 06:35:20;;;;;;;9.18;1.23;;;;;;;;;;5053409;28;20405;-74
2023/05/10 06:37:46;;;;;;;5.95;1.65;;;;;;;;;;5042718;28;20501;-73
2023/05/10 06:40:12;;;;;;;6.57;1.20;;;;;;;;;;5038933;28;20029;-73
2023/05/10 06:42:39;;;;;;;7.00;1.40;;;;;;;;;;5054582;28;20033;-73
2023/05/10 06:45:05;;;;;;;8.23;1.70;;;;;;;;;;5050797;28;20037;-74
2023/05/10 06:47:32;;;;;;;8.25;1.55;;;;;;;;;;5050616;28;20043;-74
2023/05/10 06:49:58;;;;;;;13.45;1.80;;;;;;;;;;5052622;28;20074;-74
2023/05/10 06:52:24;;;;;;;7.60;1.75;;;;;;;;;;5048107;28;20029;-74
2023/05/10 06:54:51;;;;;;;7.07;1.75;;;;;;;;;;5040980;28;20035;-74
2023/05/10 06:57:17;;;;;;;6.70;1.40;;;;;;;;;;5046100;28;20033;-73
2023/05/10 06:59:44;;;;;;;8.48;1.70;;;;;;;;;;5054120;28;20025;-74
2023/05/10 07:02:10;;;;;;;8.32;1.40;;;;;;;;;;5034286;28;20036;-74
2023/05/10 07:04:37;;;;;;;10.63;2.00;;;;;;;;;;5053971;28;20045;-74
2023/05/10 07:07:03;;;;;;;10.48;1.77;;;;;;;;;;5054067;28;20385;-74
2023/05/10 07:09:29;;;;;;;8.23;1.50;;;;;;;;;;5052711;28;20471;-73
2023/05/10 07:11:57;;;;;;;9.48;2.13;;;;;;;;;;5053425;28;20017;-74
2023/05/10 07:14:23;;;;;;;12.90;1.90;;;;;;;;;;5052995;28;20031;-73
2023/05/10 07:16:50;;;;;;;9.68;2.17;;;;;;;;;;5053640;28;20428;-74
2023/05/10 07:19:16;;;;;;;9.30;1.67;;;;;;;;;;5053854;28;20025;-73
2023/05/10 07:21:43;;;;;;;8.57;1.52;;;;;;;;;;5053651;28;20041;-73
2023/05/10 07:24:10;;;;;;;7.53;1.90;;;;;;;;;;5052186;28;20033;-74
2023/05/10 07:26:36;;;;;;;7.32;1.55;;;;;;;;;;5052390;28;20067;-73
2023/05/10 07:29:03;;;;;;;8.45;1.50;;;;;;;;;;5051383;28;20024;-74
2023/05/10 07:31:29;;;;;;;11.43;2.08;;;;;;;;;;5052970;28;20053;-74
2023/05/10 07:33:56;;;;;;;6.57;1.85;;;;;;;;;;5053251;28;20508;-73
2023/05/10 07:36:23;;;;;;;8.95;1.75;;;;;;;;;;5052805;28;20029;-74
2023/05/10 07:38:49;;;;;;;15.10;4.80;;;;;;;;;;5052431;28;20021;-74
2023/05/10 07:41:15;;;;;;;10.60;1.75;;;;;;;;;;5052171;28;20029;-74
2023/05/10 07:43:42;;;;;;;7.78;1.92;;;;;;;;;;5050817;28;20025;-74
2023/05/10 07:46:09;;;;;;;10.15;1.95;;;;;;;;;;5060579;28;20081;-74
2023/05/10 07:48:37;;;;;;;11.35;2.10;;;;;;;;;;5067573;28;20025;-74
2023/05/10 07:51:03;;;;;;;12.52;2.05;;;;;;;;;;5052745;28;20037;-74
2023/05/10 07:53:30;;;;;;;6.05;1.75;;;;;;;;;;5052563;28;20424;-73
2023/05/10 07:55:59;;;;;;;13.55;1.73;;;;;;;;;;5056815;28;20409;-74
2023/05/10 07:58:26;;;;;;;7.70;1.80;;;;;;;;;;5054029;28;20031;-73
2023/05/10 08:00:53;;;;;;;13.68;1.88;;;;;;;;;;5051943;28;20037;-73
2023/05/10 08:03:19;;;;;;;8.95;1.95;;;;;;;;;;5052749;28;20017;-74
2023/05/10 08:05:45;;;;;;;8.55;1.45;;;;;;;;;;5052407;28;20029;-73
2023/05/10 08:08:12;;;;;;;11.85;1.55;;;;;;;;;;5052262;28;20017;-74
2023/05/10 08:10:38;;;;;;;9.32;1.42;;;;;;;;;;5051958;28;20037;-74
2023/05/10 08:13:05;;;;;;;17.95;1.90;;;;;;;;;;5050758;28;20473;-74
2023/05/10 08:15:31;;;;;;;28.25;3.55;;;;;;;;;;5047118;28;20029;-74
2023/05/10 08:17:57;;;;;;;8.90;1.75;;;;;;;;;;5050540;28;20021;-73
2023/05/10 08:20:24;;;;;;;6.05;1.60;;;;;;;;;;5052036;28;20397;-73
2023/05/10 08:22:50;;;;;;;10.65;2.03;;;;;;;;;;5051982;28;20478;-74
2023/05/10 08:25:16;;;;;;;9.75;1.90;;;;;;;;;;5051272;28;20048;-75
2023/05/10 08:27:43;;;;;;;6.13;1.65;;;;;;;;;;5051329;28;20013;-72
2023/05/10 08:30:09;;;;;;;7.20;1.52;;;;;;;;;;5065989;28;20101;-74
2023/05/10 08:32:37;;;;;;;5.07;1.30;;;;;;;;;;5051759;28;20029;-74
2023/05/10 08:35:04;;;;;;;4.40;1.08;;;;;;;;;;5051513;28;20033;-73
2023/05/10 08:37:32;;;;;;;5.47;1.55;;;;;;;;;;5051624;28;20032;-74
2023/05/10 08:39:58;;;;;;;6.93;1.33;;;;;;;;;;5050734;28;20035;-74
2023/05/10 08:42:26;;;;;;;6.57;1.27;;;;;;;;;;5051423;28;20021;-74
2023/05/10 08:44:53;;;;;;;4.32;1.27;;;;;;;;;;5052209;28;20404;-74
2023/05/10 08:47:19;;;;;;;9.38;1.90;;;;;;;;;;5051890;28;20032;-74
2023/05/10 08:49:51;;;;;;;5.72;1.50;;;;;;;;;;5051547;28;20027;-73
2023/05/10 08:52:18;;;;;;;5.47;1.52;;;;;;;;;;5050581;28;20039;-74
2023/05/10 08:54:44;;;;;;;5.03;1.40;;;;;;;;;;5051139;28;20021;-74
2023/05/10 08:57:11;;;;;;;3.63;1.33;;;;;;;;;;5051743;28;20037;-73
2023/05/10 08:59:39;;;;;;;6.18;1.50;;;;;;;;;;5050037;28;20021;-74
2023/05/10 09:02:05;;;;;;;6.65;1.50;;;;;;;;;;5051260;28;20020;-72
2023/05/10 09:04:31;;;;;;;4.63;1.40;;;;;;;;;;5051071;28;20090;-72
2023/05/10 09:06:58;;;;;;;7.45;1.25;;;;;;;;;;5051343;28;20055;-73
2023/05/10 09:09:25;;;;;;;4.95;1.23;;;;;;;;;;5051242;28;20031;-72
2023/05/10 09:11:52;;;;;;;5.82;1.20;;;;;;;;;;5051428;28;20029;-73
2023/05/10 09:14:19;;;;;;;4.35;1.05;;;;;;;;;;5051146;28;20036;-72
2023/05/10 09:16:45;;;;;;;4.30;1.38;;;;;;;;;;5051238;28;20055;-66
2023/05/10 09:19:11;;;;;;;6.30;1.30;;;;;;;;;;5050516;28;20031;-66
2023/05/10 09:21:38;;;;;;;4.65;1.70;;;;;;;;;;5051228;28;20025;-66
2023/05/10 09:24:05;;;;;;;4.65;1.50;;;;;;;;;;5050245;28;20031;-66
2023/05/10 09:26:31;;;;;;;4.65;1.83;;;;;;;;;;5051162;28;20028;-66
2023/05/10 09:28:58;;;;;;;5.68;1.70;;;;;;;;;;5053943;28;20400;-66
2023/05/10 09:31:46;;;;;;;3.67;1.95;;;;;;;;;;5060593;28;20045;-66
2023/05/10 09:34:16;;;;;;;6.75;1.60;;;;;;;;;;5050828;28;20401;-66
2023/05/10 09:36:53;;;;;;;5.53;1.30;;;;;;;;;;5049814;28;20087;-66
2023/05/10 09:39:19;;;;;;;4.78;1.33;;;;;;;;;;5051991;28;20051;-66
2023/05/10 09:41:45;;;;;;;5.28;1.42;;;;;;;;;;5055089;28;20024;-66
2023/05/10 09:44:12;;;;;;;7.00;1.70;;;;;;;;;;5054717;28;20027;-64
2023/05/10 09:46:38;;;;;;;3.15;1.25;;;;;;;;;;5054876;28;20027;-65
2023/05/10 09:49:06;;;;;;;6.15;1.70;;;;;;;;;;5055187;28;20041;-66
2023/05/10 09:51:32;;;;;;;4.82;1.60;;;;;;;;;;5054934;28;20035;-66
2023/05/10 09:54:11;;;;;;;4.22;1.27;;;;;;;;;;5054557;28;20490;-66
2023/05/10 09:56:39;;;;;;;7.20;1.35;;;;;;;;;;5054084;28;20693;-66
2023/05/10 09:59:06;;;;;;;9.60;1.67;;;;;;;;;;5053486;28;20041;-66
2023/05/10 10:01:33;;;;;;;5.05;1.50;;;;;;;;;;5054044;28;20032;-66
2023/05/10 10:03:59;;;;;;;6.57;1.80;;;;;;;;;;5054714;28;20032;-65
2023/05/10 10:06:26;;;;;;;9.55;1.73;;;;;;;;;;5054776;28;20058;-66
2023/05/10 10:08:53;;;;;;;7.28;1.75;;;;;;;;;;5054231;28;20032;-66
2023/05/10 10:11:19;;;;;;;5.22;1.58;;;;;;;;;;5054925;28;20432;-66
2023/05/10 10:13:46;;;;;;;9.05;1.55;;;;;;;;;;5053798;28;20023;-66
2023/05/10 10:16:12;;;;;;;7.20;1.60;;;;;;;;;;5051928;28;20569;-66
2023/05/10 10:18:39;;;;;;;6.80;1.55;;;;;;;;;;5053903;28;20024;-66
2023/05/10 10:21:08;;;;;;;7.95;1.70;;;;;;;;;;5054341;28;20029;-67
2023/05/10 10:23:40;;;;;;;6.22;1.63;;;;;;;;;;5058960;28;20031;-67
2023/05/10 10:26:07;;;;;;;8.20;1.80;;;;;;;;;;5053779;28;20082;-67
2023/05/10 10:28:51;;;;;;;8.02;2.00;;;;;;;;;;5070969;28;20028;-67
2023/05/10 10:31:32;;;;;;;4.28;1.52;;;;;;;;;;5073998;28;20044;-67
2023/05/10 10:34:09;;;;;;;6.28;1.80;;;;;;;;;;5073702;28;20029;-68
2023/05/10 10:36:43;;;;;;;4.90;1.48;;;;;;;;;;5073880;28;20021;-67
2023/05/10 10:39:11;;;;;;;6.32;1.50;;;;;;;;;;5034115;28;20029;-67
2023/05/10 10:41:42;;;;;;;7.30;1.50;;;;;;;;;;5034076;28;20538;-67
2023/05/10 10:44:29;;;;;;;5.45;1.73;;;;;;;;;;5034056;28;20040;-67
2023/05/10 10:46:58;;;;;;;6.10;1.70;;;;;;;;;;5034375;28;20017;-67
2023/05/10 10:49:24;;;;;;;8.95;1.58;;;;;;;;;;5048200;28;20036;-68
2023/05/10 10:52:09;;;;;;;5.00;1.55;;;;;;;;;;5053711;28;20025;-67
2023/05/10 10:54:36;;;;;;;4.18;2.00;;;;;;;;;;5054426;28;20029;-67
2023/05/10 10:57:13;;;;;;;4.60;1.38;;;;;;;;;;5052338;28;20032;-67
2023/05/10 10:59:46;;;;;;;6.00;1.65;;;;;;;;;;5053934;28;20517;-68
2023/05/10 11:02:32;;;;;;;7.38;1.70;;;;;;;;;;5053518;28;20029;-68
2023/05/10 11:04:59;;;;;;;6.50;1.40;;;;;;;;;;5052154;28;20025;-67
2023/05/10 11:07:25;;;;;;;4.35;1.33;;;;;;;;;;5052420;28;20025;-67
2023/05/10 11:09:51;;;;;;;6.72;1.40;;;;;;;;;;5053779;28;20031;-68
2023/05/10 11:12:18;;;;;;;5.00;1.60;;;;;;;;;;5053373;28;20024;-67
2023/05/10 11:14:50;;;;;;;4.45;1.63;;;;;;;;;;5053314;28;20028;-67
2023/05/10 11:17:23;;;;;;;6.35;1.90;;;;;;;;;;5052681;28;20032;-67
2023/05/10 11:20:09;;;;;;;6.03;1.90;;;;;;;;;;5053682;28;20434;-67
2023/05/10 11:22:54;;;;;;;5.57;1.95;;;;;;;;;;5052626;28;20013;-68
2023/05/10 11:25:26;;;;;;;4.57;1.80;;;;;;;;;;5053655;28;20037;-67
2023/05/10 11:27:53;;;;;;;3.40;1.20;;;;;;;;;;5053636;28;20037;-67
2023/05/10 11:30:19;;;;;;;4.57;1.50;;;;;;;;;;5053638;28;20053;-68
2023/05/10 11:32:46;;;;;;;4.97;1.60;;;;;;;;;;5053432;28;20029;-67
2023/05/10 11:35:12;;;;;;;4.43;1.50;;;;;;;;;;5052324;28;20043;-67
2023/05/10 11:37:43;;;;;;;4.18;1.75;;;;;;;;;;5050727;28;20031;-68
2023/05/10 11:40:09;;;;;;;;;;;;;;;;;;5049771;28;20013;-66
2023/05/10 11:42:41;;;;;;;6.50;1.40;;;;;;;;;;5052239;28;19953;-67
2023/05/10 11:45:08;;;;;;;7.53;1.83;;;;;;;;;;5039430;28;20043;-66
2023/05/10 11:47:35;;;;;;;6.90;1.50;;;;;;;;;;5038146;28;20017;-66
2023/05/10 11:50:02;;;;;;;4.13;1.58;;;;;;;;;;5052439;28;20440;-66
2023/05/10 11:52:28;;;;;;;3.28;1.23;;;;;;;;;;5052686;28;20487;-66
2023/05/10 11:54:55;;;;;;;2.30;1.10;;;;;;;;;;5047546;28;20024;-65
2023/05/10 11:57:26;;;;;;;6.35;1.63;;;;;;;;;;5050981;28;20032;-66
2023/05/10 11:59:55;;;;;;;2.90;1.00;;;;;;;;;;5052757;28;20031;-66
2023/05/10 12:02:21;;;;;;;2.80;1.02;;;;;;;;;;5051834;28;20043;-67
2023/05/10 12:04:48;;;;;;;2.38;1.00;;;;;;;;;;5050271;28;20041;-66
2023/05/10 12:07:14;;;;;;;1.92;0.80;;;;;;;;;;5043739;28;20527;-66
2023/05/10 12:09:47;;;;;;;4.22;1.35;;;;;;;;;;5052372;28;20397;-66
2023/05/10 12:12:17;;;;;;;4.72;1.45;;;;;;;;;;5051071;28;20025;-66
2023/05/10 12:14:43;;;;;;;5.03;1.17;;;;;;;;;;5051872;28;20432;-66
2023/05/10 12:17:13;;;;;;;5.63;1.50;;;;;;;;;;5052208;28;20050;-66
2023/05/10 12:19:39;;;;;;;2.50;1.37;;;;;;;;;;5052392;28;20028;-66
2023/05/10 12:22:06;;;;;;;9.20;1.33;;;;;;;;;;5051808;28;20021;-66
2023/05/10 12:24:35;;;;;;;2.45;1.10;;;;;;;;;;5049949;28;20075;-66
2023/05/10 12:27:05;;;;;;;2.55;1.02;;;;;;;;;;5051415;28;20033;-66
2023/05/10 12:29:31;;;;;;;2.97;1.27;;;;;;;;;;5031984;28;20029;-66
2023/05/10 12:31:59;;;;;;;3.83;1.30;;;;;;;;;;5063701;28;20041;-66
2023/05/10 12:34:35;;;;;;;2.67;1.02;;;;;;;;;;5050296;28;20535;-66
2023/05/10 12:37:05;;;;;;;3.92;1.42;;;;;;;;;;5051909;28;20436;-66
2023/05/10 12:39:41;;;;;;;5.03;1.60;;;;;;;;;;5034528;28;20017;-66
2023/05/10 12:42:07;;;;;;;2.20;0.90;;;;;;;;;;5050764;28;20029;-66
2023/05/10 12:44:33;;;;;;;4.07;1.25;;;;;;;;;;5051436;28;20512;-66
2023/05/10 12:47:00;;;;;;;3.03;0.90;;;;;;;;;;5050554;28;20047;-66
2023/05/10 12:49:26;;;;;;;2.45;1.00;;;;;;;;;;5031280;27;20047;-66
2023/05/10 12:51:53;;;;;;;2.58;0.85;;;;;;;;;;4991602;28;20040;-66
2023/05/10 12:54:19;;;;;;;3.72;1.00;;;;;;;;;;4991854;28;20026;-66
2023/05/10 12:56:45;;;;;;;1.55;0.80;;;;;;;;;;4992697;28;20026;-66
2023/05/10 12:59:12;;;;;;;2.28;0.80;;;;;;;;;;4992426;28;20488;-66
2023/05/10 13:01:38;;;;;;;1.63;0.80;;;;;;;;;;4992029;28;20049;-66
2023/05/10 13:04:05;;;;;;;2.35;0.90;;;;;;;;;;4991867;28;20041;-66
2023/05/10 13:06:31;;;;;;;6.10;1.10;;;;;;;;;;4991978;28;20122;-66
2023/05/10 13:08:58;;;;;;;3.10;1.00;;;;;;;;;;4992283;28;20022;-66
2023/05/10 13:11:24;;;;;;;4.47;1.33;;;;;;;;;;4991937;28;20395;-66
2023/05/10 13:13:51;;;;;;;3.42;0.90;;;;;;;;;;4991626;28;20110;-66
2023/05/10 13:16:18;;;;;;;3.67;0.70;;;;;;;;;;4989301;28;20092;-66
2023/05/10 13:18:44;;;;;;;4.65;1.05;;;;;;;;;;4973980;28;20031;-67
2023/05/10 13:21:11;;;;;;;3.30;1.05;;;;;;;;;;4973849;28;20319;-66
2023/05/10 13:23:37;;;;;;;3.20;1.20;;;;;;;;;;4973513;28;20681;-66
2023/05/10 13:26:03;;;;;;;1.77;0.98;;;;;;;;;;4973529;28;20038;-65
2023/05/10 13:28:30;;;;;;;2.65;1.00;;;;;;;;;;4973560;28;20438;-66
2023/05/10 13:30:56;;;;;;;1.75;0.90;;;;;;;;;;4980253;28;20062;-66
2023/05/10 13:33:23;;;;;;;3.72;1.10;;;;;;;;;;4991622;28;20060;-66
2023/05/10 13:35:49;;;;;;;5.30;1.05;;;;;;;;;;4984483;28;20099;-65
2023/05/10 13:38:15;;;;;;;2.28;0.90;;;;;;;;;;4976988;28;20018;-66
2023/05/10 13:40:42;;;;;;;1.88;0.95;;;;;;;;;;4973037;28;20030;-66
2023/05/10 13:43:08;;;;;;;3.53;1.30;;;;;;;;;;4973257;28;20040;-66
2023/05/10 13:45:34;;;;;;;3.83;0.90;;;;;;;;;;4972736;28;20622;-66
2023/05/10 13:48:01;;;;;;;3.15;1.00;;;;;;;;;;4973434;28;20031;-65
2023/05/10 13:50:27;;;;;;;6.65;1.33;;;;;;;;;;4978834;28;20030;-65
2023/05/10 13:52:53;;;;;;;2.65;1.20;;;;;;;;;;4991751;28;20026;-66
2023/05/10 13:55:20;;;;;;;7.07;1.20;;;;;;;;;;4990460;28;20041;-66
2023/05/10 13:57:46;;;;;;;3.50;1.25;;;;;;;;;;4990099;28;20514;-65
2023/05/10 14:00:13;;;;;;;4.97;1.08;;;;;;;;;;4984234;28;20103;-66
2023/05/10 14:02:40;;;;;;;1.88;0.75;;;;;;;;;;4981050;28;20075;-66
2023/05/10 14:05:06;;;;;;;4.15;1.20;;;;;;;;;;4972130;28;20033;-65
2023/05/10 14:07:33;;;;;;;3.20;0.80;;;;;;;;;;4990009;28;20025;-66
2023/05/10 14:09:59;;;;;;;2.38;0.70;;;;;;;;;;4981725;28;20395;-65
2023/05/10 14:12:26;;;;;;;2.28;0.80;;;;;;;;;;4980587;28;20023;-66
2023/05/10 14:14:52;;;;;;;2.63;0.57;;;;;;;;;;4984796;28;20026;-66
2023/05/10 14:17:19;;;;;;;2.55;0.82;;;;;;;;;;4981150;28;20034;-65
2023/05/10 14:19:45;;;;;;;2.75;0.90;;;;;;;;;;4989865;28;20034;-65
2023/05/10 14:22:11;;;;;;;5.53;0.90;;;;;;;;;;4991311;28;20074;-65
2023/05/10 14:24:38;;;;;;;3.60;0.90;;;;;;;;;;4990779;28;20019;-65
2023/05/10 14:27:05;;;;;;;3.78;1.00;;;;;;;;;;4994460;28;20376;-65
2023/05/10 14:29:32;;;;;;;6.50;1.48;;;;;;;;;;4994122;28;20018;-65
2023/05/10 14:31:59;;;;;;;3.40;1.33;;;;;;;;;;4993256;28;20064;-66
2023/05/10 14:34:25;;;;;;;3.13;1.23;;;;;;;;;;4992903;28;20040;-66
2023/05/10 14:36:51;;;;;;;5.28;1.00;;;;;;;;;;4994740;28;20038;-67
2023/05/10 14:39:18;;;;;;;3.25;1.10;;;;;;;;;;4992609;28;20026;-67
2023/05/10 14:41:45;;;;;;;3.05;1.13;;;;;;;;;;4981281;28;20030;-67
2023/05/10 14:44:12;;;;;;;3.10;0.82;;;;;;;;;;4994658;28;20080;-67